sensor_id;sensor_type;location;lat;lon;timestamp;P1;durP1;ratioP1;P2;durP2;ratioP2
15833;SDS011;8017;50.812;4.934;2022-10-31T00:00:11;26.87;;;19.93;;
15833;SDS011;8017;50.812;4.934;2022-10-31T00:03:14;28.63;;;19.50;;
15833;SDS011;8017;50.812;4.934;2022-10-31T00:06:16;26.40;;;18.90;;
15833;SDS011;8017;50.812;4.934;2022-10-31T00:09:18;24.13;;;18.40;;
15833;SDS011;8017;50.812;4.934;2022-10-31T00:12:21;24.83;;;18.57;;
15833;SDS011;8017;50.812;4.934;2022-10-31T00:15:23;23.27;;;18.23;;
15833;SDS011;8017;50.812;4.934;2022-10-31T00:18:25;23.13;;;17.03;;
15833;SDS011;8017;50.812;4.934;2022-10-31T00:21:27;26.97;;;19.63;;
15833;SDS011;8017;50.812;4.934;2022-10-31T00:24:31;24.77;;;19.10;;
15833;SDS011;8017;50.812;4.934;2022-10-31T00:27:34;27.00;;;19.27;;
15833;SDS011;8017;50.812;4.934;2022-10-31T00:30:36;20.23;;;17.77;;
15833;SDS011;8017;50.812;4.934;2022-10-31T00:33:38;20.90;;;17.80;;
15833;SDS011;8017;50.812;4.934;2022-10-31T00:36:41;21.83;;;17.33;;
15833;SDS011;8017;50.812;4.934;2022-10-31T00:39:43;23.80;;;17.03;;
15833;SDS011;8017;50.812;4.934;2022-10-31T00:42:46;23.60;;;15.87;;
15833;SDS011;8017;50.812;4.934;2022-10-31T00:45:48;22.70;;;17.00;;
15833;SDS011;8017;50.812;4.934;2022-10-31T00:48:50;28.37;;;17.13;;
15833;SDS011;8017;50.812;4.934;2022-10-31T00:51:52;22.67;;;17.70;;
15833;SDS011;8017;50.812;4.934;2022-10-31T00:54:54;20.60;;;16.53;;
15833;SDS011;8017;50.812;4.934;2022-10-31T00:57:57;23.00;;;16.80;;
15833;SDS011;8017;50.812;4.934;2022-10-31T01:00:59;24.43;;;16.80;;
15833;SDS011;8017;50.812;4.934;2022-10-31T01:04:01;24.77;;;17.40;;
15833;SDS011;8017;50.812;4.934;2022-10-31T01:07:03;24.17;;;17.00;;
15833;SDS011;8017;50.812;4.934;2022-10-31T01:10:05;24.87;;;17.03;;
15833;SDS011;8017;50.812;4.934;2022-10-31T01:13:09;23.50;;;17.33;;
15833;SDS011;8017;50.812;4.934;2022-10-31T01:16:12;20.00;;;16.50;;
15833;SDS011;8017;50.812;4.934;2022-10-31T01:19:15;20.80;;;16.80;;
15833;SDS011;8017;50.812;4.934;2022-10-31T01:22:17;21.93;;;16.80;;
15833;SDS011;8017;50.812;4.934;2022-10-31T01:25:19;20.37;;;16.17;;
15833;SDS011;8017;50.812;4.934;2022-10-31T01:28:22;21.80;;;17.00;;
15833;SDS011;8017;50.812;4.934;2022-10-31T01:31:25;24.47;;;16.57;;
15833;SDS011;8017;50.812;4.934;2022-10-31T01:34:29;22.70;;;16.33;;
15833;SDS011;8017;50.812;4.934;2022-10-31T01:37:31;23.97;;;17.10;;
15833;SDS011;8017;50.812;4.934;2022-10-31T01:40:33;22.07;;;16.93;;
15833;SDS011;8017;50.812;4.934;2022-10-31T01:43:43;22.43;;;17.07;;
15833;SDS011;8017;50.812;4.934;2022-10-31T01:46:49;23.93;;;17.33;;
15833;SDS011;8017;50.812;4.934;2022-10-31T01:49:54;28.90;;;17.93;;
15833;SDS011;8017;50.812;4.934;2022-10-31T01:52:59;27.53;;;18.20;;
15833;SDS011;8017;50.812;4.934;2022-10-31T01:56:03;29.67;;;17.90;;
15833;SDS011;8017;50.812;4.934;2022-10-31T01:59:07;26.03;;;18.57;;
15833;SDS011;8017;50.812;4.934;2022-10-31T02:02:12;26.33;;;19.37;;
15833;SDS011;8017;50.812;4.934;2022-10-31T02:05:17;23.90;;;17.83;;
15833;SDS011;8017;50.812;4.934;2022-10-31T02:08:23;21.97;;;17.77;;
15833;SDS011;8017;50.812;4.934;2022-10-31T02:11:28;25.07;;;18.23;;
15833;SDS011;8017;50.812;4.934;2022-10-31T02:14:33;21.47;;;16.90;;
15833;SDS011;8017;50.812;4.934;2022-10-31T02:17:37;24.33;;;18.43;;
15833;SDS011;8017;50.812;4.934;2022-10-31T02:20:41;27.97;;;19.10;;
15833;SDS011;8017;50.812;4.934;2022-10-31T02:27:45;27.93;;;19.80;;
15833;SDS011;8017;50.812;4.934;2022-10-31T02:31:14;25.30;;;19.73;;
15833;SDS011;8017;50.812;4.934;2022-10-31T02:34:28;31.10;;;20.13;;
15833;SDS011;8017;50.812;4.934;2022-10-31T02:37:37;29.13;;;19.77;;
15833;SDS011;8017;50.812;4.934;2022-10-31T02:40:44;27.47;;;19.93;;
15833;SDS011;8017;50.812;4.934;2022-10-31T02:43:54;29.03;;;20.80;;
15833;SDS011;8017;50.812;4.934;2022-10-31T02:47:05;29.73;;;19.50;;
15833;SDS011;8017;50.812;4.934;2022-10-31T02:50:10;30.23;;;20.00;;
15833;SDS011;8017;50.812;4.934;2022-10-31T02:53:14;29.60;;;20.10;;
15833;SDS011;8017;50.812;4.934;2022-10-31T02:56:17;27.73;;;19.60;;
15833;SDS011;8017;50.812;4.934;2022-10-31T02:59:20;32.23;;;22.13;;
15833;SDS011;8017;50.812;4.934;2022-10-31T03:02:36;25.70;;;20.20;;
15833;SDS011;8017;50.812;4.934;2022-10-31T03:05:49;28.80;;;20.10;;
15833;SDS011;8017;50.812;4.934;2022-10-31T03:08:58;32.60;;;22.37;;
15833;SDS011;8017;50.812;4.934;2022-10-31T03:12:13;29.57;;;20.17;;
15833;SDS011;8017;50.812;4.934;2022-10-31T03:15:24;35.37;;;21.10;;
15833;SDS011;8017;50.812;4.934;2022-10-31T03:18:31;29.40;;;21.50;;
15833;SDS011;8017;50.812;4.934;2022-10-31T03:21:35;31.87;;;22.30;;
15833;SDS011;8017;50.812;4.934;2022-10-31T03:24:43;29.80;;;20.93;;
15833;SDS011;8017;50.812;4.934;2022-10-31T03:27:46;32.73;;;22.17;;
15833;SDS011;8017;50.812;4.934;2022-10-31T03:30:48;34.80;;;22.97;;
15833;SDS011;8017;50.812;4.934;2022-10-31T03:33:54;33.60;;;22.23;;
15833;SDS011;8017;50.812;4.934;2022-10-31T03:36:59;32.77;;;22.70;;
15833;SDS011;8017;50.812;4.934;2022-10-31T03:40:05;30.20;;;21.57;;
15833;SDS011;8017;50.812;4.934;2022-10-31T03:43:10;30.63;;;21.53;;
15833;SDS011;8017;50.812;4.934;2022-10-31T03:46:16;31.47;;;21.40;;
15833;SDS011;8017;50.812;4.934;2022-10-31T03:49:20;29.07;;;21.57;;
15833;SDS011;8017;50.812;4.934;2022-10-31T03:52:23;31.40;;;21.00;;
15833;SDS011;8017;50.812;4.934;2022-10-31T03:55:29;27.03;;;21.10;;
15833;SDS011;8017;50.812;4.934;2022-10-31T03:58:38;32.13;;;21.10;;
15833;SDS011;8017;50.812;4.934;2022-10-31T04:01:45;31.63;;;21.83;;
15833;SDS011;8017;50.812;4.934;2022-10-31T04:04:51;30.87;;;21.63;;
15833;SDS011;8017;50.812;4.934;2022-10-31T04:07:54;29.43;;;22.17;;
15833;SDS011;8017;50.812;4.934;2022-10-31T04:10:59;32.27;;;21.77;;
15833;SDS011;8017;50.812;4.934;2022-10-31T04:14:03;30.63;;;22.17;;
15833;SDS011;8017;50.812;4.934;2022-10-31T04:17:09;29.87;;;22.10;;
15833;SDS011;8017;50.812;4.934;2022-10-31T04:20:28;32.63;;;22.33;;
15833;SDS011;8017;50.812;4.934;2022-10-31T04:23:32;34.33;;;23.33;;
15833;SDS011;8017;50.812;4.934;2022-10-31T04:26:35;29.80;;;22.50;;
15833;SDS011;8017;50.812;4.934;2022-10-31T04:29:37;34.57;;;23.83;;
15833;SDS011;8017;50.812;4.934;2022-10-31T04:32:39;35.07;;;24.07;;
15833;SDS011;8017;50.812;4.934;2022-10-31T04:35:42;25.80;;;21.70;;
15833;SDS011;8017;50.812;4.934;2022-10-31T04:38:44;32.40;;;23.80;;
15833;SDS011;8017;50.812;4.934;2022-10-31T04:41:46;30.07;;;23.03;;
15833;SDS011;8017;50.812;4.934;2022-10-31T04:44:48;33.90;;;24.27;;
15833;SDS011;8017;50.812;4.934;2022-10-31T04:47:49;35.57;;;24.43;;
15833;SDS011;8017;50.812;4.934;2022-10-31T04:50:57;32.83;;;22.73;;
15833;SDS011;8017;50.812;4.934;2022-10-31T04:54:00;32.83;;;24.13;;
15833;SDS011;8017;50.812;4.934;2022-10-31T04:57:02;29.83;;;22.37;;
15833;SDS011;8017;50.812;4.934;2022-10-31T05:00:04;34.93;;;23.77;;
15833;SDS011;8017;50.812;4.934;2022-10-31T05:03:06;28.77;;;23.60;;
15833;SDS011;8017;50.812;4.934;2022-10-31T05:06:10;30.37;;;23.60;;
15833;SDS011;8017;50.812;4.934;2022-10-31T05:09:12;33.97;;;24.23;;
15833;SDS011;8017;50.812;4.934;2022-10-31T05:12:14;31.03;;;23.10;;
15833;SDS011;8017;50.812;4.934;2022-10-31T05:15:16;34.67;;;23.53;;
15833;SDS011;8017;50.812;4.934;2022-10-31T05:18:19;34.83;;;23.83;;
15833;SDS011;8017;50.812;4.934;2022-10-31T05:21:22;27.10;;;22.83;;
15833;SDS011;8017;50.812;4.934;2022-10-31T05:24:24;31.87;;;22.70;;
15833;SDS011;8017;50.812;4.934;2022-10-31T05:27:26;30.43;;;23.37;;
15833;SDS011;8017;50.812;4.934;2022-10-31T05:30:28;29.60;;;22.57;;
15833;SDS011;8017;50.812;4.934;2022-10-31T05:33:32;31.27;;;23.03;;
15833;SDS011;8017;50.812;4.934;2022-10-31T05:36:35;33.67;;;21.97;;
15833;SDS011;8017;50.812;4.934;2022-10-31T05:39:37;31.40;;;22.60;;
15833;SDS011;8017;50.812;4.934;2022-10-31T05:42:39;31.73;;;21.47;;
15833;SDS011;8017;50.812;4.934;2022-10-31T05:45:41;31.30;;;22.37;;
15833;SDS011;8017;50.812;4.934;2022-10-31T05:48:43;36.53;;;23.33;;
15833;SDS011;8017;50.812;4.934;2022-10-31T05:51:46;32.60;;;23.10;;
15833;SDS011;8017;50.812;4.934;2022-10-31T05:54:48;30.77;;;22.90;;
15833;SDS011;8017;50.812;4.934;2022-10-31T05:57:50;30.17;;;23.00;;
15833;SDS011;8017;50.812;4.934;2022-10-31T06:00:52;30.77;;;22.87;;
15833;SDS011;8017;50.812;4.934;2022-10-31T06:03:54;33.83;;;22.10;;
15833;SDS011;8017;50.812;4.934;2022-10-31T06:06:57;28.63;;;22.33;;
15833;SDS011;8017;50.812;4.934;2022-10-31T06:09:59;27.17;;;20.07;;
15833;SDS011;8017;50.812;4.934;2022-10-31T06:13:01;28.23;;;22.00;;
15833;SDS011;8017;50.812;4.934;2022-10-31T06:16:04;28.57;;;21.47;;
15833;SDS011;8017;50.812;4.934;2022-10-31T06:19:06;30.10;;;21.10;;
15833;SDS011;8017;50.812;4.934;2022-10-31T06:22:09;32.40;;;21.60;;
15833;SDS011;8017;50.812;4.934;2022-10-31T06:25:12;29.47;;;21.47;;
15833;SDS011;8017;50.812;4.934;2022-10-31T06:28:14;29.80;;;22.03;;
15833;SDS011;8017;50.812;4.934;2022-10-31T06:31:16;27.90;;;20.63;;
15833;SDS011;8017;50.812;4.934;2022-10-31T06:34:18;26.23;;;20.27;;
15833;SDS011;8017;50.812;4.934;2022-10-31T06:37:21;28.20;;;21.47;;
15833;SDS011;8017;50.812;4.934;2022-10-31T06:40:23;25.77;;;19.90;;
15833;SDS011;8017;50.812;4.934;2022-10-31T06:43:25;30.50;;;20.90;;
15833;SDS011;8017;50.812;4.934;2022-10-31T06:46:27;28.27;;;19.40;;
15833;SDS011;8017;50.812;4.934;2022-10-31T06:49:29;24.93;;;19.63;;
15833;SDS011;8017;50.812;4.934;2022-10-31T06:52:32;25.03;;;19.97;;
15833;SDS011;8017;50.812;4.934;2022-10-31T06:55:34;25.23;;;20.10;;
15833;SDS011;8017;50.812;4.934;2022-10-31T06:58:36;24.60;;;19.17;;
15833;SDS011;8017;50.812;4.934;2022-10-31T07:01:37;24.10;;;19.83;;
15833;SDS011;8017;50.812;4.934;2022-10-31T07:04:39;25.50;;;19.77;;
15833;SDS011;8017;50.812;4.934;2022-10-31T07:07:43;27.77;;;22.33;;
15833;SDS011;8017;50.812;4.934;2022-10-31T07:10:50;34.83;;;25.60;;
15833;SDS011;8017;50.812;4.934;2022-10-31T07:13:52;30.77;;;25.70;;
15833;SDS011;8017;50.812;4.934;2022-10-31T07:16:54;28.33;;;22.47;;
15833;SDS011;8017;50.812;4.934;2022-10-31T07:19:56;28.53;;;20.40;;
15833;SDS011;8017;50.812;4.934;2022-10-31T07:22:59;28.27;;;21.47;;
15833;SDS011;8017;50.812;4.934;2022-10-31T07:26:02;30.67;;;21.07;;
15833;SDS011;8017;50.812;4.934;2022-10-31T07:29:03;29.93;;;23.37;;
15833;SDS011;8017;50.812;4.934;2022-10-31T07:32:05;31.23;;;23.60;;
15833;SDS011;8017;50.812;4.934;2022-10-31T07:35:08;26.70;;;20.20;;
15833;SDS011;8017;50.812;4.934;2022-10-31T07:38:12;23.73;;;18.60;;
15833;SDS011;8017;50.812;4.934;2022-10-31T07:41:15;22.80;;;19.07;;
15833;SDS011;8017;50.812;4.934;2022-10-31T07:44:17;25.23;;;19.10;;
15833;SDS011;8017;50.812;4.934;2022-10-31T07:47:19;24.77;;;19.27;;
15833;SDS011;8017;50.812;4.934;2022-10-31T07:50:22;21.03;;;17.87;;
15833;SDS011;8017;50.812;4.934;2022-10-31T07:53:26;26.03;;;19.17;;
15833;SDS011;8017;50.812;4.934;2022-10-31T07:56:28;26.17;;;21.63;;
15833;SDS011;8017;50.812;4.934;2022-10-31T07:59:30;25.20;;;20.50;;
15833;SDS011;8017;50.812;4.934;2022-10-31T08:02:32;21.90;;;18.20;;
15833;SDS011;8017;50.812;4.934;2022-10-31T08:05:34;22.30;;;18.27;;
15833;SDS011;8017;50.812;4.934;2022-10-31T08:08:38;24.07;;;19.20;;
15833;SDS011;8017;50.812;4.934;2022-10-31T08:11:39;23.07;;;18.10;;
15833;SDS011;8017;50.812;4.934;2022-10-31T08:14:41;27.07;;;18.23;;
15833;SDS011;8017;50.812;4.934;2022-10-31T08:17:44;28.77;;;19.87;;
15833;SDS011;8017;50.812;4.934;2022-10-31T08:20:46;23.93;;;17.73;;
15833;SDS011;8017;50.812;4.934;2022-10-31T08:23:49;24.87;;;18.90;;
15833;SDS011;8017;50.812;4.934;2022-10-31T08:26:51;26.60;;;18.67;;
15833;SDS011;8017;50.812;4.934;2022-10-31T08:29:53;25.93;;;17.80;;
15833;SDS011;8017;50.812;4.934;2022-10-31T08:32:59;23.50;;;18.70;;
15833;SDS011;8017;50.812;4.934;2022-10-31T08:36:03;25.77;;;19.40;;
15833;SDS011;8017;50.812;4.934;2022-10-31T08:39:06;26.00;;;19.50;;
15833;SDS011;8017;50.812;4.934;2022-10-31T08:42:08;27.13;;;20.80;;
15833;SDS011;8017;50.812;4.934;2022-10-31T08:45:10;29.97;;;22.03;;
15833;SDS011;8017;50.812;4.934;2022-10-31T08:48:12;23.43;;;19.30;;
15833;SDS011;8017;50.812;4.934;2022-10-31T08:51:20;24.87;;;20.33;;
15833;SDS011;8017;50.812;4.934;2022-10-31T08:54:23;26.07;;;19.37;;
15833;SDS011;8017;50.812;4.934;2022-10-31T08:57:25;26.07;;;19.73;;
15833;SDS011;8017;50.812;4.934;2022-10-31T09:00:27;25.83;;;19.87;;
15833;SDS011;8017;50.812;4.934;2022-10-31T09:03:30;25.33;;;19.63;;
15833;SDS011;8017;50.812;4.934;2022-10-31T09:06:32;27.43;;;19.20;;
15833;SDS011;8017;50.812;4.934;2022-10-31T09:09:35;27.33;;;20.30;;
15833;SDS011;8017;50.812;4.934;2022-10-31T09:12:37;24.43;;;20.27;;
15833;SDS011;8017;50.812;4.934;2022-10-31T09:15:39;27.00;;;21.07;;
15833;SDS011;8017;50.812;4.934;2022-10-31T09:18:43;27.03;;;21.27;;
15833;SDS011;8017;50.812;4.934;2022-10-31T09:21:45;27.57;;;20.90;;
15833;SDS011;8017;50.812;4.934;2022-10-31T09:24:48;27.13;;;20.10;;
15833;SDS011;8017;50.812;4.934;2022-10-31T09:27:50;29.50;;;19.10;;
15833;SDS011;8017;50.812;4.934;2022-10-31T09:30:56;30.03;;;20.00;;
15833;SDS011;8017;50.812;4.934;2022-10-31T09:33:58;31.87;;;19.23;;
15833;SDS011;8017;50.812;4.934;2022-10-31T09:37:00;23.50;;;19.20;;
15833;SDS011;8017;50.812;4.934;2022-10-31T09:40:03;25.10;;;19.73;;
15833;SDS011;8017;50.812;4.934;2022-10-31T09:43:09;25.47;;;19.43;;
15833;SDS011;8017;50.812;4.934;2022-10-31T09:46:18;28.63;;;19.03;;
15833;SDS011;8017;50.812;4.934;2022-10-31T09:49:34;29.27;;;19.83;;
15833;SDS011;8017;50.812;4.934;2022-10-31T09:52:51;25.87;;;18.87;;
15833;SDS011;8017;50.812;4.934;2022-10-31T09:56:00;22.00;;;17.13;;
15833;SDS011;8017;50.812;4.934;2022-10-31T09:59:08;24.77;;;16.30;;
15833;SDS011;8017;50.812;4.934;2022-10-31T10:02:16;21.90;;;15.37;;
15833;SDS011;8017;50.812;4.934;2022-10-31T10:05:23;22.40;;;15.87;;
15833;SDS011;8017;50.812;4.934;2022-10-31T10:08:30;22.83;;;15.30;;
15833;SDS011;8017;50.812;4.934;2022-10-31T10:11:39;23.47;;;16.20;;
15833;SDS011;8017;50.812;4.934;2022-10-31T10:14:57;20.43;;;14.70;;
15833;SDS011;8017;50.812;4.934;2022-10-31T10:18:18;20.60;;;14.40;;
15833;SDS011;8017;50.812;4.934;2022-10-31T10:21:32;22.43;;;14.50;;
15833;SDS011;8017;50.812;4.934;2022-10-31T10:24:48;25.37;;;14.90;;
15833;SDS011;8017;50.812;4.934;2022-10-31T10:28:01;18.57;;;14.50;;
15833;SDS011;8017;50.812;4.934;2022-10-31T10:31:11;17.63;;;13.57;;
15833;SDS011;8017;50.812;4.934;2022-10-31T10:34:17;19.03;;;13.53;;
15833;SDS011;8017;50.812;4.934;2022-10-31T10:37:23;20.50;;;13.90;;
15833;SDS011;8017;50.812;4.934;2022-10-31T10:40:29;18.80;;;14.83;;
15833;SDS011;8017;50.812;4.934;2022-10-31T10:43:33;18.63;;;14.43;;
15833;SDS011;8017;50.812;4.934;2022-10-31T10:46:40;20.13;;;14.87;;
15833;SDS011;8017;50.812;4.934;2022-10-31T10:50:00;16.60;;;14.57;;
15833;SDS011;8017;50.812;4.934;2022-10-31T10:53:09;22.90;;;14.30;;
15833;SDS011;8017;50.812;4.934;2022-10-31T10:56:36;21.47;;;14.33;;
15833;SDS011;8017;50.812;4.934;2022-10-31T10:59:47;26.23;;;14.73;;
15833;SDS011;8017;50.812;4.934;2022-10-31T11:02:50;20.80;;;14.63;;
15833;SDS011;8017;50.812;4.934;2022-10-31T11:05:52;19.70;;;14.77;;
15833;SDS011;8017;50.812;4.934;2022-10-31T11:08:56;21.53;;;13.53;;
15833;SDS011;8017;50.812;4.934;2022-10-31T11:12:09;20.20;;;13.90;;
15833;SDS011;8017;50.812;4.934;2022-10-31T11:15:19;19.20;;;12.97;;
15833;SDS011;8017;50.812;4.934;2022-10-31T11:18:25;19.93;;;13.57;;
15833;SDS011;8017;50.812;4.934;2022-10-31T11:21:32;18.57;;;13.00;;
15833;SDS011;8017;50.812;4.934;2022-10-31T11:24:38;21.53;;;11.73;;
15833;SDS011;8017;50.812;4.934;2022-10-31T11:27:41;21.57;;;10.77;;
15833;SDS011;8017;50.812;4.934;2022-10-31T11:30:45;16.80;;;10.70;;
15833;SDS011;8017;50.812;4.934;2022-10-31T11:33:49;15.90;;;10.17;;
15833;SDS011;8017;50.812;4.934;2022-10-31T11:36:54;12.80;;;9.53;;
15833;SDS011;8017;50.812;4.934;2022-10-31T11:40:00;15.97;;;9.70;;
15833;SDS011;8017;50.812;4.934;2022-10-31T11:43:12;17.27;;;9.87;;
15833;SDS011;8017;50.812;4.934;2022-10-31T11:46:21;16.13;;;10.03;;
15833;SDS011;8017;50.812;4.934;2022-10-31T11:49:27;19.37;;;10.03;;
15833;SDS011;8017;50.812;4.934;2022-10-31T11:52:31;12.23;;;9.03;;
15833;SDS011;8017;50.812;4.934;2022-10-31T11:55:34;18.90;;;9.97;;
15833;SDS011;8017;50.812;4.934;2022-10-31T11:58:38;16.50;;;9.50;;
15833;SDS011;8017;50.812;4.934;2022-10-31T12:01:46;14.40;;;8.50;;
15833;SDS011;8017;50.812;4.934;2022-10-31T12:04:50;15.90;;;9.07;;
15833;SDS011;8017;50.812;4.934;2022-10-31T12:08:09;15.03;;;9.10;;
15833;SDS011;8017;50.812;4.934;2022-10-31T12:11:22;11.67;;;8.50;;
15833;SDS011;8017;50.812;4.934;2022-10-31T12:14:43;14.93;;;8.07;;
15833;SDS011;8017;50.812;4.934;2022-10-31T12:18:01;18.10;;;8.40;;
15833;SDS011;8017;50.812;4.934;2022-10-31T12:21:19;14.10;;;8.40;;
15833;SDS011;8017;50.812;4.934;2022-10-31T12:24:49;18.23;;;9.20;;
15833;SDS011;8017;50.812;4.934;2022-10-31T12:28:03;16.00;;;9.13;;
15833;SDS011;8017;50.812;4.934;2022-10-31T12:31:29;12.50;;;8.40;;
15833;SDS011;8017;50.812;4.934;2022-10-31T12:34:57;13.93;;;8.63;;
15833;SDS011;8017;50.812;4.934;2022-10-31T12:38:22;15.10;;;8.80;;
15833;SDS011;8017;50.812;4.934;2022-10-31T12:41:45;19.87;;;9.67;;
15833;SDS011;8017;50.812;4.934;2022-10-31T12:44:58;17.30;;;9.80;;
15833;SDS011;8017;50.812;4.934;2022-10-31T12:51:39;18.17;;;11.13;;
15833;SDS011;8017;50.812;4.934;2022-10-31T12:54:50;18.60;;;9.93;;
15833;SDS011;8017;50.812;4.934;2022-10-31T12:58:00;18.40;;;12.07;;
15833;SDS011;8017;50.812;4.934;2022-10-31T13:01:11;17.50;;;10.33;;
15833;SDS011;8017;50.812;4.934;2022-10-31T13:04:21;17.90;;;11.10;;
15833;SDS011;8017;50.812;4.934;2022-10-31T13:07:36;20.50;;;12.10;;
15833;SDS011;8017;50.812;4.934;2022-10-31T13:10:42;17.07;;;11.30;;
15833;SDS011;8017;50.812;4.934;2022-10-31T13:13:48;17.27;;;11.13;;
15833;SDS011;8017;50.812;4.934;2022-10-31T13:16:57;20.97;;;12.47;;
15833;SDS011;8017;50.812;4.934;2022-10-31T13:23:26;19.23;;;11.27;;
15833;SDS011;8017;50.812;4.934;2022-10-31T13:26:34;22.73;;;12.17;;
15833;SDS011;8017;50.812;4.934;2022-10-31T13:29:40;17.07;;;10.57;;
15833;SDS011;8017;50.812;4.934;2022-10-31T13:32:48;18.27;;;11.70;;
15833;SDS011;8017;50.812;4.934;2022-10-31T13:35:55;15.57;;;10.83;;
15833;SDS011;8017;50.812;4.934;2022-10-31T13:39:13;19.57;;;12.60;;
15833;SDS011;8017;50.812;4.934;2022-10-31T13:42:23;23.37;;;12.03;;
15833;SDS011;8017;50.812;4.934;2022-10-31T13:45:33;20.73;;;12.03;;
15833;SDS011;8017;50.812;4.934;2022-10-31T13:48:36;17.17;;;11.73;;
15833;SDS011;8017;50.812;4.934;2022-10-31T13:51:41;19.83;;;12.40;;
15833;SDS011;8017;50.812;4.934;2022-10-31T13:54:45;17.63;;;12.40;;
15833;SDS011;8017;50.812;4.934;2022-10-31T13:57:48;20.30;;;12.87;;
15833;SDS011;8017;50.812;4.934;2022-10-31T14:00:59;24.23;;;12.77;;
15833;SDS011;8017;50.812;4.934;2022-10-31T14:04:16;22.40;;;12.20;;
15833;SDS011;8017;50.812;4.934;2022-10-31T14:07:21;19.10;;;12.67;;
15833;SDS011;8017;50.812;4.934;2022-10-31T14:10:27;20.57;;;12.47;;
15833;SDS011;8017;50.812;4.934;2022-10-31T14:13:31;23.17;;;13.57;;
15833;SDS011;8017;50.812;4.934;2022-10-31T14:16:37;21.37;;;13.07;;
15833;SDS011;8017;50.812;4.934;2022-10-31T14:19:41;22.80;;;12.47;;
15833;SDS011;8017;50.812;4.934;2022-10-31T14:22:43;18.63;;;12.73;;
15833;SDS011;8017;50.812;4.934;2022-10-31T14:25:47;19.57;;;12.37;;
15833;SDS011;8017;50.812;4.934;2022-10-31T14:28:49;17.97;;;11.27;;
15833;SDS011;8017;50.812;4.934;2022-10-31T14:31:52;20.47;;;11.80;;
15833;SDS011;8017;50.812;4.934;2022-10-31T14:34:56;18.97;;;12.03;;
15833;SDS011;8017;50.812;4.934;2022-10-31T14:38:09;17.93;;;10.97;;
15833;SDS011;8017;50.812;4.934;2022-10-31T14:41:27;16.97;;;10.50;;
15833;SDS011;8017;50.812;4.934;2022-10-31T14:44:52;17.20;;;10.83;;
15833;SDS011;8017;50.812;4.934;2022-10-31T14:48:11;15.57;;;10.03;;
15833;SDS011;8017;50.812;4.934;2022-10-31T14:51:25;17.27;;;10.73;;
15833;SDS011;8017;50.812;4.934;2022-10-31T14:54:32;15.43;;;9.20;;
15833;SDS011;8017;50.812;4.934;2022-10-31T14:57:38;12.63;;;9.20;;
15833;SDS011;8017;50.812;4.934;2022-10-31T15:00:49;18.27;;;9.83;;
15833;SDS011;8017;50.812;4.934;2022-10-31T15:03:55;15.57;;;9.27;;
15833;SDS011;8017;50.812;4.934;2022-10-31T15:07:02;15.10;;;9.37;;
15833;SDS011;8017;50.812;4.934;2022-10-31T15:10:19;19.60;;;10.03;;
15833;SDS011;8017;50.812;4.934;2022-10-31T15:13:23;21.27;;;9.23;;
15833;SDS011;8017;50.812;4.934;2022-10-31T15:16:26;13.90;;;8.93;;
15833;SDS011;8017;50.812;4.934;2022-10-31T15:19:34;13.97;;;8.30;;
15833;SDS011;8017;50.812;4.934;2022-10-31T15:22:37;15.23;;;8.30;;
15833;SDS011;8017;50.812;4.934;2022-10-31T15:25:39;13.13;;;7.53;;
15833;SDS011;8017;50.812;4.934;2022-10-31T15:28:44;13.33;;;7.20;;
15833;SDS011;8017;50.812;4.934;2022-10-31T15:31:49;14.17;;;7.10;;
15833;SDS011;8017;50.812;4.934;2022-10-31T15:34:52;11.43;;;5.90;;
15833;SDS011;8017;50.812;4.934;2022-10-31T15:37:57;10.60;;;5.67;;
15833;SDS011;8017;50.812;4.934;2022-10-31T15:41:01;13.53;;;5.17;;
15833;SDS011;8017;50.812;4.934;2022-10-31T15:44:12;12.30;;;4.40;;
15833;SDS011;8017;50.812;4.934;2022-10-31T15:47:17;9.30;;;4.70;;
15833;SDS011;8017;50.812;4.934;2022-10-31T15:50:22;11.80;;;4.63;;
15833;SDS011;8017;50.812;4.934;2022-10-31T15:53:27;11.67;;;4.63;;
15833;SDS011;8017;50.812;4.934;2022-10-31T15:56:35;8.63;;;4.37;;
15833;SDS011;8017;50.812;4.934;2022-10-31T15:59:38;11.30;;;4.93;;
15833;SDS011;8017;50.812;4.934;2022-10-31T16:02:44;8.63;;;4.57;;
15833;SDS011;8017;50.812;4.934;2022-10-31T16:05:46;14.17;;;5.20;;
15833;SDS011;8017;50.812;4.934;2022-10-31T16:08:50;15.17;;;5.47;;
15833;SDS011;8017;50.812;4.934;2022-10-31T16:11:52;14.63;;;5.37;;
15833;SDS011;8017;50.812;4.934;2022-10-31T16:14:57;12.53;;;5.00;;
15833;SDS011;8017;50.812;4.934;2022-10-31T16:17:59;14.80;;;6.07;;
15833;SDS011;8017;50.812;4.934;2022-10-31T16:21:01;12.37;;;5.43;;
15833;SDS011;8017;50.812;4.934;2022-10-31T16:24:04;15.37;;;5.47;;
15833;SDS011;8017;50.812;4.934;2022-10-31T16:27:16;11.17;;;6.10;;
15833;SDS011;8017;50.812;4.934;2022-10-31T16:30:28;12.03;;;5.47;;
15833;SDS011;8017;50.812;4.934;2022-10-31T16:33:36;11.47;;;5.57;;
15833;SDS011;8017;50.812;4.934;2022-10-31T16:36:40;10.57;;;5.60;;
15833;SDS011;8017;50.812;4.934;2022-10-31T16:39:43;10.67;;;5.20;;
15833;SDS011;8017;50.812;4.934;2022-10-31T16:42:45;12.37;;;5.10;;
15833;SDS011;8017;50.812;4.934;2022-10-31T16:45:51;12.13;;;5.30;;
15833;SDS011;8017;50.812;4.934;2022-10-31T16:48:53;17.67;;;6.27;;
15833;SDS011;8017;50.812;4.934;2022-10-31T16:51:55;11.97;;;6.00;;
15833;SDS011;8017;50.812;4.934;2022-10-31T16:54:57;17.40;;;7.00;;
15833;SDS011;8017;50.812;4.934;2022-10-31T16:57:59;12.77;;;5.90;;
15833;SDS011;8017;50.812;4.934;2022-10-31T17:01:03;11.37;;;5.20;;
15833;SDS011;8017;50.812;4.934;2022-10-31T17:04:07;9.03;;;5.07;;
15833;SDS011;8017;50.812;4.934;2022-10-31T17:07:13;13.73;;;5.27;;
15833;SDS011;8017;50.812;4.934;2022-10-31T17:10:15;10.27;;;4.80;;
15833;SDS011;8017;50.812;4.934;2022-10-31T17:13:18;13.50;;;5.20;;
15833;SDS011;8017;50.812;4.934;2022-10-31T17:16:24;10.47;;;5.43;;
15833;SDS011;8017;50.812;4.934;2022-10-31T17:19:26;7.33;;;4.70;;
15833;SDS011;8017;50.812;4.934;2022-10-31T17:22:28;12.57;;;5.77;;
15833;SDS011;8017;50.812;4.934;2022-10-31T17:25:30;11.97;;;7.03;;
15833;SDS011;8017;50.812;4.934;2022-10-31T17:28:32;12.07;;;6.57;;
15833;SDS011;8017;50.812;4.934;2022-10-31T17:31:35;11.97;;;6.93;;
15833;SDS011;8017;50.812;4.934;2022-10-31T17:34:38;19.43;;;7.80;;
15833;SDS011;8017;50.812;4.934;2022-10-31T17:37:40;16.80;;;7.67;;
15833;SDS011;8017;50.812;4.934;2022-10-31T17:40:43;15.70;;;7.13;;
15833;SDS011;8017;50.812;4.934;2022-10-31T17:43:45;14.33;;;6.70;;
15833;SDS011;8017;50.812;4.934;2022-10-31T17:46:48;16.33;;;6.93;;
15833;SDS011;8017;50.812;4.934;2022-10-31T17:49:50;15.73;;;8.73;;
15833;SDS011;8017;50.812;4.934;2022-10-31T17:52:52;11.67;;;6.63;;
15833;SDS011;8017;50.812;4.934;2022-10-31T17:55:58;13.43;;;7.00;;
15833;SDS011;8017;50.812;4.934;2022-10-31T17:59:01;11.87;;;6.80;;
15833;SDS011;8017;50.812;4.934;2022-10-31T18:02:05;14.13;;;5.80;;
15833;SDS011;8017;50.812;4.934;2022-10-31T18:05:08;13.67;;;5.93;;
15833;SDS011;8017;50.812;4.934;2022-10-31T18:08:10;12.10;;;5.43;;
15833;SDS011;8017;50.812;4.934;2022-10-31T18:11:13;10.97;;;5.93;;
15833;SDS011;8017;50.812;4.934;2022-10-31T18:14:17;10.07;;;5.47;;
15833;SDS011;8017;50.812;4.934;2022-10-31T18:17:20;14.87;;;6.37;;
15833;SDS011;8017;50.812;4.934;2022-10-31T18:20:22;15.70;;;5.77;;
15833;SDS011;8017;50.812;4.934;2022-10-31T18:23:24;13.30;;;5.90;;
15833;SDS011;8017;50.812;4.934;2022-10-31T18:26:26;9.47;;;5.57;;
15833;SDS011;8017;50.812;4.934;2022-10-31T18:29:28;9.67;;;5.73;;
15833;SDS011;8017;50.812;4.934;2022-10-31T18:32:31;13.00;;;6.03;;
15833;SDS011;8017;50.812;4.934;2022-10-31T18:35:35;12.57;;;5.43;;